createdAt,value
2019-04-07T00:00:31.743Z,99.90
2019-04-07T00:03:01.175Z,99.90
2019-04-07T00:05:31.060Z,99.90
2019-04-07T00:07:59.903Z,99.90
2019-04-07T00:10:28.844Z,99.90
2019-04-07T00:12:58.024Z,99.90
2019-04-07T00:15:26.917Z,99.90
2019-04-07T00:17:55.985Z,99.90
2019-04-07T00:20:25.328Z,99.90
2019-04-07T00:22:55.149Z,99.90
2019-04-07T00:25:24.115Z,99.90
2019-04-07T00:27:53.194Z,99.90
2019-04-07T00:30:22.437Z,99.90
2019-04-07T00:32:52.008Z,99.90
2019-04-07T00:35:26.540Z,99.90
2019-04-07T00:37:51.777Z,99.90
2019-04-07T00:40:20.856Z,99.90
2019-04-07T00:42:50.177Z,99.90
2019-04-07T00:45:19.135Z,99.90
2019-04-07T00:47:48.011Z,99.90
2019-04-07T00:50:16.983Z,99.90
2019-04-07T00:52:45.888Z,99.90
2019-04-07T00:55:14.961Z,99.90
2019-04-07T00:57:44.087Z,99.90
2019-04-07T01:00:16.479Z,99.90
2019-04-07T01:02:44.685Z,99.90
2019-04-07T01:05:13.850Z,99.90
2019-04-07T01:07:43.126Z,99.90
2019-04-07T01:10:12.908Z,99.90
2019-04-07T01:12:41.923Z,99.90
2019-04-07T01:15:11.783Z,99.90
2019-04-07T01:17:40.762Z,99.90
2019-04-07T01:20:09.740Z,99.90
2019-04-07T01:22:38.967Z,99.90
2019-04-07T01:25:08.848Z,99.90
2019-04-07T01:27:37.874Z,99.90
2019-04-07T01:30:07.200Z,99.90
2019-04-07T01:32:36.709Z,99.90
2019-04-07T01:35:05.796Z,99.90
2019-04-07T01:37:35.258Z,99.90
2019-04-07T01:40:04.515Z,99.90
2019-04-07T01:42:42.243Z,99.90
2019-04-07T01:45:37.223Z,99.90
2019-04-07T01:48:24.197Z,99.90
2019-04-07T01:51:10.745Z,99.90
2019-04-07T01:53:58.715Z,99.90
2019-04-07T01:56:47.121Z,99.90
2019-04-07T01:59:34.396Z,99.90
2019-04-07T02:02:28.399Z,99.90
2019-04-07T02:05:04.454Z,99.90
2019-04-07T02:07:55.502Z,99.90
2019-04-07T02:10:42.872Z,99.90
2019-04-07T02:13:31.266Z,99.90
2019-04-07T02:16:14.480Z,99.90
2019-04-07T02:18:53.321Z,99.90
2019-04-07T02:21:27.386Z,99.90
2019-04-07T02:24:08.139Z,99.90
2019-04-07T02:26:58.966Z,99.90
2019-04-07T02:29:45.530Z,99.90
2019-04-07T02:32:39.722Z,99.90
2019-04-07T02:35:20.928Z,99.90
2019-04-07T02:37:55.609Z,99.90
2019-04-07T02:40:35.552Z,99.90
2019-04-07T02:43:27.334Z,99.90
2019-04-07T02:46:13.300Z,99.90
2019-04-07T02:49:16.585Z,99.90
2019-04-07T02:52:12.114Z,99.90
2019-04-07T02:54:51.492Z,99.90
2019-04-07T02:57:48.726Z,99.90
2019-04-07T03:00:43.251Z,99.90
2019-04-07T03:03:34.375Z,99.90
2019-04-07T03:06:35.716Z,99.90
2019-04-07T03:08:57.147Z,99.90
2019-04-07T03:11:39.202Z,99.90
2019-04-07T03:14:26.196Z,99.90
2019-04-07T03:17:12.314Z,99.90
2019-04-07T03:19:49.690Z,99.90
2019-04-07T03:22:47.095Z,99.90
2019-04-07T03:25:34.313Z,99.90
2019-04-07T03:28:17.501Z,99.90
2019-04-07T03:31:04.032Z,99.90
2019-04-07T03:33:54.150Z,99.90
2019-04-07T03:37:09.938Z,99.90
2019-04-07T03:39:28.401Z,99.90
2019-04-07T03:42:21.350Z,99.90
2019-04-07T03:44:56.777Z,99.90
2019-04-07T03:47:39.951Z,99.90
2019-04-07T03:50:31.600Z,99.90
2019-04-07T03:53:12.435Z,99.90
2019-04-07T03:56:04.003Z,99.90
2019-04-07T03:58:49.419Z,99.90
2019-04-07T04:01:49.678Z,99.90
2019-04-07T04:04:29.966Z,99.90
2019-04-07T04:07:36.589Z,99.90
2019-04-07T04:10:23.853Z,99.90
2019-04-07T04:13:14.650Z,99.90
2019-04-07T04:15:56.745Z,99.90
2019-04-07T04:18:26.400Z,99.90
2019-04-07T04:20:55.891Z,99.90
2019-04-07T04:23:24.888Z,99.90
2019-04-07T04:25:55.636Z,99.90
2019-04-07T04:28:24.775Z,99.90
2019-04-07T04:30:53.953Z,99.90
2019-04-07T04:33:23.508Z,99.90
2019-04-07T04:35:52.424Z,99.90
2019-04-07T04:38:21.359Z,99.90
2019-04-07T04:40:50.608Z,99.90
2019-04-07T04:43:19.779Z,99.90
2019-04-07T04:45:48.674Z,99.90
2019-04-07T04:48:17.605Z,99.90
2019-04-07T04:50:47.145Z,99.90
2019-04-07T04:53:17.107Z,99.90
2019-04-07T04:55:47.094Z,99.90
2019-04-07T04:58:16.117Z,99.90
2019-04-07T05:00:45.284Z,99.90
2019-04-07T05:03:14.957Z,99.90
2019-04-07T05:05:44.052Z,99.90
2019-04-07T05:08:12.973Z,99.90
2019-04-07T05:10:41.959Z,99.90
2019-04-07T05:13:10.907Z,99.90
2019-04-07T05:15:39.960Z,99.90
2019-04-07T05:18:08.871Z,99.90
2019-04-07T05:20:37.828Z,99.90
2019-04-07T05:23:06.799Z,99.90
2019-04-07T05:25:36.975Z,99.90
2019-04-07T05:28:06.523Z,99.90
2019-04-07T05:30:35.788Z,99.90
2019-04-07T05:33:05.585Z,99.90
2019-04-07T05:35:35.083Z,99.90
2019-04-07T05:38:06.462Z,99.90
2019-04-07T05:40:34.592Z,99.90
2019-04-07T05:43:04.654Z,99.90
2019-04-07T05:45:36.311Z,99.90
2019-04-07T05:48:04.366Z,99.90
2019-04-07T05:50:33.452Z,99.90
2019-04-07T05:53:02.958Z,99.90
2019-04-07T05:55:32.058Z,99.90
2019-04-07T05:58:03.428Z,99.90
2019-04-07T06:00:31.502Z,99.90
2019-04-07T06:03:04.263Z,99.90
2019-04-07T06:05:31.184Z,99.90
2019-04-07T06:08:06.299Z,99.90
2019-04-07T06:10:30.682Z,99.90
2019-04-07T06:12:59.632Z,99.90
2019-04-07T06:15:29.109Z,99.90
2019-04-07T06:18:01.091Z,99.90
2019-04-07T06:20:28.998Z,99.90
2019-04-07T06:22:58.449Z,99.90
2019-04-07T06:25:27.453Z,99.90
2019-04-07T06:27:56.850Z,99.90
2019-04-07T06:30:28.139Z,99.90
2019-04-07T06:32:56.997Z,99.90
2019-04-07T06:35:26.071Z,99.90
2019-04-07T06:37:57.753Z,99.90
2019-04-07T06:40:25.685Z,99.90
2019-04-07T06:42:54.557Z,99.90
2019-04-07T06:45:27.293Z,99.90
2019-04-07T06:48:00.216Z,99.90
2019-04-07T06:50:50.213Z,99.10
2019-04-07T06:53:23.585Z,97.90
2019-04-07T06:56:03.034Z,96.50
2019-04-07T06:58:41.344Z,96.40
2019-04-07T07:01:36.220Z,96.20
2019-04-07T07:04:24.380Z,96.20
2019-04-07T07:07:06.531Z,97.60
2019-04-07T07:09:47.075Z,98.60
2019-04-07T07:12:38.392Z,97.30
2019-04-07T07:15:24.550Z,98.70
2019-04-07T07:18:14.210Z,97.10
2019-04-07T07:21:08.287Z,96.50
2019-04-07T07:23:44.839Z,96.70
2019-04-07T07:26:12.470Z,96.30
2019-04-07T07:28:43.963Z,96.00
2019-04-07T07:31:11.962Z,98.10
2019-04-07T07:33:42.661Z,96.90
2019-04-07T07:36:12.382Z,99.90
2019-04-07T07:38:42.838Z,99.90
2019-04-07T07:41:12.123Z,99.90
2019-04-07T07:43:41.445Z,99.90
2019-04-07T07:46:10.578Z,99.90
2019-04-07T07:48:40.085Z,99.90
2019-04-07T07:51:12.895Z,99.60
2019-04-07T07:53:40.417Z,98.90
2019-04-07T07:56:12.121Z,99.70
2019-04-07T07:58:40.659Z,97.30
2019-04-07T08:01:12.275Z,96.80
2019-04-07T08:03:40.551Z,97.70
2019-04-07T08:06:09.672Z,98.40
2019-04-07T08:08:39.589Z,98.20
2019-04-07T08:11:08.561Z,98.60
2019-04-07T08:13:43.371Z,96.70
2019-04-07T08:16:08.738Z,96.70
2019-04-07T08:18:40.654Z,97.30
2019-04-07T08:21:12.221Z,98.10
2019-04-07T08:23:43.621Z,98.40
2019-04-07T08:26:10.518Z,99.20
2019-04-07T08:28:40.295Z,99.20
2019-04-07T08:31:09.851Z,97.60
2019-04-07T08:33:39.752Z,99.30
2019-04-07T08:36:12.204Z,98.20
2019-04-07T08:38:40.025Z,98.80
2019-04-07T08:41:11.485Z,99.70
2019-04-07T08:43:39.944Z,98.90
2019-04-07T08:46:08.919Z,98.40
2019-04-07T08:48:37.856Z,97.90
2019-04-07T08:51:06.925Z,97.30
2019-04-07T08:53:35.882Z,96.90
2019-04-07T08:56:06.881Z,97.00
2019-04-07T08:58:38.478Z,97.80
2019-04-07T09:01:06.458Z,97.70
2019-04-07T09:03:35.835Z,97.90
2019-04-07T09:06:04.908Z,98.20
2019-04-07T09:08:36.778Z,98.30
2019-04-07T09:11:10.060Z,98.90
2019-04-07T09:13:39.589Z,97.00
2019-04-07T09:16:28.021Z,96.70
2019-04-07T09:19:08.039Z,96.80
2019-04-07T09:21:51.803Z,97.60
2019-04-07T09:24:38.702Z,97.40
2019-04-07T09:27:23.498Z,96.60
2019-04-07T09:30:07.649Z,96.50
2019-04-07T09:32:52.811Z,96.30
2019-04-07T09:35:41.397Z,97.50
2019-04-07T09:38:38.629Z,96.90
2019-04-07T09:41:19.157Z,96.60
2019-04-07T09:44:05.207Z,95.30
2019-04-07T09:46:47.128Z,95.60
2019-04-07T09:49:24.764Z,95.50
2019-04-07T09:52:02.858Z,96.10
2019-04-07T09:54:59.625Z,94.60
2019-04-07T09:57:47.582Z,94.10
2019-04-07T10:00:45.513Z,94.20
2019-04-07T10:03:48.594Z,95.40
2019-04-07T10:06:39.780Z,93.70
2019-04-07T10:09:26.807Z,95.50
2019-04-07T10:12:04.823Z,95.40
2019-04-07T10:14:51.723Z,94.40
2019-04-07T10:17:51.851Z,94.20
2019-04-07T10:20:49.191Z,94.40
2019-04-07T10:23:36.266Z,94.00
2019-04-07T10:26:20.422Z,94.30
2019-04-07T10:29:00.593Z,92.90
2019-04-07T10:31:49.330Z,94.30
2019-04-07T10:34:43.663Z,94.20
2019-04-07T10:37:51.325Z,93.10
2019-04-07T10:40:29.179Z,91.80
2019-04-07T10:43:09.561Z,93.50
2019-04-07T10:45:57.980Z,92.50
2019-04-07T10:48:55.794Z,92.80
2019-04-07T10:51:42.449Z,92.90
2019-04-07T10:54:19.867Z,92.80
2019-04-07T10:57:14.543Z,92.20
2019-04-07T11:00:09.036Z,91.00
2019-04-07T11:02:55.441Z,92.10
2019-04-07T11:05:48.205Z,91.40
2019-04-07T11:08:36.636Z,91.50
2019-04-07T11:11:31.410Z,90.50
2019-04-07T11:14:12.153Z,90.50
2019-04-07T11:17:03.642Z,91.10
2019-04-07T11:19:50.286Z,90.20
2019-04-07T11:22:37.043Z,88.70
2019-04-07T11:25:15.005Z,90.70
2019-04-07T11:28:03.097Z,90.00
2019-04-07T11:30:52.106Z,87.70
2019-04-07T11:33:29.165Z,86.30
2019-04-07T11:36:11.802Z,87.30
2019-04-07T11:38:47.180Z,84.60
2019-04-07T11:41:28.845Z,81.50
2019-04-07T11:44:20.324Z,80.70
2019-04-07T11:47:00.432Z,81.40
2019-04-07T11:49:51.299Z,82.20
2019-04-07T11:52:35.324Z,83.70
2019-04-07T11:55:16.241Z,85.10
2019-04-07T11:58:15.100Z,85.80
2019-04-07T12:01:14.792Z,85.70
2019-04-07T12:04:28.305Z,84.30
2019-04-07T12:07:19.137Z,86.60
2019-04-07T12:10:17.908Z,82.30
2019-04-07T12:13:07.416Z,82.50
2019-04-07T12:16:05.693Z,82.80
2019-04-07T12:19:01.861Z,80.60
2019-04-07T12:21:45.151Z,81.40
2019-04-07T12:24:28.662Z,83.30
2019-04-07T12:27:04.877Z,82.10
2019-04-07T12:29:40.259Z,82.30
2019-04-07T12:32:18.125Z,81.70
2019-04-07T12:35:13.389Z,80.80
2019-04-07T12:38:10.052Z,81.90
2019-04-07T12:40:45.332Z,81.70
2019-04-07T12:43:36.333Z,80.60
2019-04-07T12:46:30.470Z,79.20
2019-04-07T12:49:30.100Z,80.00
2019-04-07T12:52:26.123Z,80.90
2019-04-07T12:55:07.011Z,81.90
2019-04-07T12:57:43.533Z,80.30
2019-04-07T13:00:52.349Z,80.80
2019-04-07T13:03:24.329Z,80.20
2019-04-07T13:06:15.694Z,79.10
2019-04-07T13:09:11.455Z,77.10
2019-04-07T13:12:05.693Z,77.20
2019-04-07T13:14:45.939Z,76.50
2019-04-07T13:17:49.488Z,76.00
2019-04-07T13:20:28.795Z,75.70
2019-04-07T13:23:19.987Z,74.20
2019-04-07T13:25:55.609Z,74.70
2019-04-07T13:28:41.863Z,74.00
2019-04-07T13:31:21.735Z,73.50
2019-04-07T13:34:05.173Z,70.90
2019-04-07T13:37:00.113Z,71.00
2019-04-07T13:39:47.074Z,73.10
2019-04-07T13:42:27.868Z,71.40
2019-04-07T13:45:29.004Z,69.10
2019-04-07T13:48:07.760Z,70.90
2019-04-07T13:50:59.553Z,69.50
2019-04-07T13:53:47.595Z,69.30
2019-04-07T13:56:34.300Z,70.10
2019-04-07T13:59:28.384Z,68.80
2019-04-07T14:02:29.661Z,72.10
2019-04-07T14:05:11.159Z,69.80
2019-04-07T14:07:55.465Z,69.30
2019-04-07T14:10:37.062Z,69.90
2019-04-07T14:13:26.769Z,68.30
2019-04-07T14:16:14.272Z,68.10
2019-04-07T14:18:58.169Z,67.60
2019-04-07T14:21:33.854Z,67.80
2019-04-07T14:24:20.578Z,69.40
2019-04-07T14:27:17.674Z,70.60
2019-04-07T14:30:04.659Z,71.60
2019-04-07T14:32:49.843Z,72.40
2019-04-07T14:35:31.514Z,70.70
2019-04-07T14:38:11.590Z,72.40
2019-04-07T14:41:03.159Z,71.00
2019-04-07T14:43:45.023Z,68.00
2019-04-07T14:46:42.603Z,67.00
2019-04-07T14:49:47.716Z,66.90
2019-04-07T14:52:36.093Z,66.90
2019-04-07T14:55:14.029Z,69.30
2019-04-07T14:58:20.329Z,69.10
2019-04-07T15:01:26.119Z,69.80
2019-04-07T15:03:55.693Z,66.70
2019-04-07T15:06:29.210Z,64.50
2019-04-07T15:09:14.699Z,65.60
2019-04-07T15:11:51.233Z,66.70
2019-04-07T15:14:20.213Z,64.80
2019-04-07T15:16:49.214Z,63.30
2019-04-07T15:19:18.277Z,65.30
2019-04-07T15:21:48.811Z,64.00
2019-04-07T15:24:18.709Z,61.60
2019-04-07T15:26:49.888Z,61.70
2019-04-07T15:29:18.448Z,63.50
2019-04-07T15:31:50.816Z,62.00
2019-04-07T15:34:18.664Z,62.30
2019-04-07T15:36:48.357Z,63.60
2019-04-07T15:39:20.436Z,63.40
2019-04-07T15:41:57.789Z,63.60
2019-04-07T15:44:27.129Z,64.30
2019-04-07T15:46:56.555Z,63.40
2019-04-07T15:49:27.352Z,62.90
2019-04-07T15:51:57.206Z,60.90
2019-04-07T15:54:26.271Z,58.50
2019-04-07T15:56:58.531Z,59.60
2019-04-07T15:59:29.414Z,58.20
2019-04-07T16:01:57.312Z,57.00
2019-04-07T16:04:29.310Z,59.00
2019-04-07T16:06:57.829Z,57.60
2019-04-07T16:09:34.607Z,58.60
2019-04-07T16:11:59.069Z,58.30
2019-04-07T16:14:28.085Z,57.70
2019-04-07T16:16:59.586Z,58.10
2019-04-07T16:19:37.398Z,57.90
2019-04-07T16:21:58.481Z,59.50
2019-04-07T16:24:27.436Z,61.00
2019-04-07T16:26:56.229Z,60.20
2019-04-07T16:29:25.157Z,62.80
2019-04-07T16:31:56.988Z,65.90
2019-04-07T16:34:24.749Z,65.30
2019-04-07T16:36:57.264Z,63.00
2019-04-07T16:39:24.301Z,63.50
2019-04-07T16:41:53.481Z,62.20
2019-04-07T16:44:23.259Z,61.30
2019-04-07T16:46:56.426Z,61.50
2019-04-07T16:49:23.647Z,61.30
2019-04-07T16:51:53.577Z,59.80
2019-04-07T16:54:23.367Z,60.00
2019-04-07T16:56:56.149Z,60.60
2019-04-07T16:59:23.195Z,62.10
2019-04-07T17:01:52.934Z,62.80
2019-04-07T17:04:21.982Z,63.40
2019-04-07T17:07:01.647Z,64.60
2019-04-07T17:09:24.710Z,64.10
2019-04-07T17:11:52.425Z,63.90
2019-04-07T17:14:21.404Z,65.30
2019-04-07T17:16:50.442Z,67.40
2019-04-07T17:19:20.039Z,69.30
2019-04-07T17:21:49.100Z,70.90
2019-04-07T17:24:18.485Z,72.80
2019-04-07T17:26:47.399Z,74.50
2019-04-07T17:29:19.109Z,75.60
2019-04-07T17:31:47.060Z,76.00
2019-04-07T17:34:16.030Z,75.90
2019-04-07T17:36:48.417Z,77.10
2019-04-07T17:39:38.491Z,78.00
2019-04-07T17:42:12.113Z,79.20
2019-04-07T17:45:16.165Z,81.20
2019-04-07T17:48:17.113Z,81.70
2019-04-07T17:51:09.721Z,82.00
2019-04-07T17:53:55.418Z,82.80
2019-04-07T17:56:49.647Z,83.00
2019-04-07T17:59:38.437Z,84.10
2019-04-07T18:02:20.394Z,84.80
2019-04-07T18:05:06.798Z,84.50
2019-04-07T18:07:54.301Z,84.80
2019-04-07T18:10:39.059Z,85.00
2019-04-07T18:13:21.821Z,85.40
2019-04-07T18:16:07.302Z,86.10
2019-04-07T18:18:59.157Z,86.50
2019-04-07T18:21:49.757Z,89.80
2019-04-07T18:24:30.136Z,89.60
2019-04-07T18:27:21.127Z,90.50
2019-04-07T18:30:00.714Z,91.80
2019-04-07T18:33:03.253Z,91.20
2019-04-07T18:36:09.186Z,92.60
2019-04-07T18:39:07.575Z,93.80
2019-04-07T18:41:44.744Z,96.50
2019-04-07T18:44:42.493Z,98.50
2019-04-07T18:47:31.455Z,99.80
2019-04-07T18:50:31.499Z,99.90
2019-04-07T18:53:28.735Z,99.90
2019-04-07T18:56:09.896Z,99.90
2019-04-07T18:59:04.243Z,99.90
2019-04-07T19:01:58.512Z,99.90
2019-04-07T19:04:58.931Z,99.90
2019-04-07T19:07:50.585Z,99.90
2019-04-07T19:10:30.603Z,99.90
2019-04-07T19:13:18.595Z,99.90
2019-04-07T19:16:04.080Z,99.90
2019-04-07T19:18:43.605Z,99.90
2019-04-07T19:21:20.940Z,99.90
2019-04-07T19:24:03.108Z,99.90
2019-04-07T19:26:54.633Z,99.90
2019-04-07T19:29:39.130Z,99.90
2019-04-07T19:32:25.039Z,99.90
2019-04-07T19:35:11.907Z,99.90
2019-04-07T19:37:58.400Z,99.90
2019-04-07T19:40:38.082Z,99.90
2019-04-07T19:43:29.247Z,99.90
2019-04-07T19:46:04.863Z,99.90
2019-04-07T19:48:52.311Z,99.90
2019-04-07T19:52:02.298Z,99.90
2019-04-07T19:54:57.278Z,99.90
2019-04-07T19:57:38.504Z,99.90
2019-04-07T20:00:30.543Z,99.90
2019-04-07T20:03:17.905Z,99.90
2019-04-07T20:06:04.853Z,99.90
2019-04-07T20:08:45.968Z,99.90
2019-04-07T20:11:45.963Z,99.90
2019-04-07T20:14:24.897Z,99.90
2019-04-07T20:17:16.354Z,99.90
2019-04-07T20:20:08.827Z,99.90
2019-04-07T20:22:57.609Z,99.90
2019-04-07T20:25:38.172Z,99.90
2019-04-07T20:28:35.845Z,99.90
2019-04-07T20:31:27.812Z,99.90
2019-04-07T20:34:07.669Z,99.90
2019-04-07T20:36:51.668Z,99.90
2019-04-07T20:39:37.902Z,99.90
2019-04-07T20:42:19.613Z,99.90
2019-04-07T20:45:13.394Z,99.90
2019-04-07T20:47:56.602Z,99.90
2019-04-07T20:50:35.555Z,99.90
2019-04-07T20:53:29.830Z,99.90
2019-04-07T20:56:16.701Z,99.90
2019-04-07T20:59:03.897Z,99.90
2019-04-07T21:02:02.440Z,99.90
2019-04-07T21:04:38.288Z,99.90
2019-04-07T21:07:39.671Z,99.90
2019-04-07T21:10:39.581Z,99.90
2019-04-07T21:13:27.436Z,99.90
2019-04-07T21:16:26.005Z,99.90
2019-04-07T21:19:04.196Z,99.90
2019-04-07T21:21:55.861Z,99.90
2019-04-07T21:24:49.766Z,99.90
2019-04-07T21:27:34.709Z,99.90
2019-04-07T21:30:29.089Z,99.90
2019-04-07T21:33:15.240Z,99.90
2019-04-07T21:36:08.162Z,99.90
2019-04-07T21:38:56.350Z,99.90
2019-04-07T21:41:50.510Z,99.90
2019-04-07T21:44:33.803Z,99.90
2019-04-07T21:47:29.204Z,99.90
2019-04-07T21:50:13.934Z,99.90
2019-04-07T21:53:01.246Z,99.90
2019-04-07T21:55:54.078Z,99.90
2019-04-07T21:58:42.027Z,99.90
2019-04-07T22:01:36.688Z,99.90
2019-04-07T22:04:27.416Z,99.90
2019-04-07T22:07:04.780Z,99.90
2019-04-07T22:09:47.024Z,99.90
2019-04-07T22:12:15.299Z,99.90
2019-04-07T22:14:45.391Z,99.90
2019-04-07T22:17:14.676Z,99.90
2019-04-07T22:19:46.288Z,99.90
2019-04-07T22:22:14.901Z,99.90
2019-04-07T22:24:44.280Z,99.90
2019-04-07T22:27:13.210Z,99.90
2019-04-07T22:29:42.800Z,99.90
2019-04-07T22:32:11.723Z,99.90
2019-04-07T22:34:40.666Z,99.90
2019-04-07T22:37:10.120Z,99.90
2019-04-07T22:39:39.696Z,99.90
2019-04-07T22:42:08.646Z,99.90
2019-04-07T22:44:37.750Z,99.90
2019-04-07T22:47:07.088Z,99.90
2019-04-07T22:49:35.904Z,99.90
2019-04-07T22:52:05.508Z,99.90
2019-04-07T22:54:34.853Z,99.90
2019-04-07T22:57:06.112Z,99.90
2019-04-07T22:59:34.316Z,99.90
2019-04-07T23:02:03.300Z,99.90
2019-04-07T23:04:32.304Z,99.90
2019-04-07T23:07:01.180Z,99.90
2019-04-07T23:09:30.166Z,99.90
2019-04-07T23:12:00.760Z,99.90
2019-04-07T23:14:29.771Z,99.90
2019-04-07T23:16:58.678Z,99.90
2019-04-07T23:19:27.624Z,99.90
2019-04-07T23:21:57.526Z,99.90
2019-04-07T23:24:26.772Z,99.90
2019-04-07T23:26:56.311Z,99.90
2019-04-07T23:29:26.197Z,99.90
2019-04-07T23:31:55.578Z,99.90
2019-04-07T23:34:25.345Z,99.90
2019-04-07T23:36:54.379Z,99.90
2019-04-07T23:39:23.243Z,99.90
2019-04-07T23:41:52.030Z,99.90
2019-04-07T23:44:21.414Z,99.90
2019-04-07T23:46:50.910Z,99.90
2019-04-07T23:49:20.409Z,99.90
2019-04-07T23:51:49.398Z,99.90
2019-04-07T23:54:18.421Z,99.90
2019-04-07T23:56:47.774Z,99.90
2019-04-07T23:59:16.895Z,99.90
